LiveATC.Net - Listen to live air traffic control over the Internet!


ICAO: KSLE  IATA: SLE   Airport: McNary Field Airport
City: Salem   State/Province: Oregon
Country: United States   Continent: North America
KSLE METAR Weather: KSLE 212356Z 18011KT 10SM OVC020 20/15 A2998 RMK AO2 SLP151 60000 T02000150 10217 20178 57013
KSLE Flight Activity (FlightAware)
KSLE Airport Info   (iFlightPlanner)
KSLE VFR Sectional Chart   (iFlightPlanner) 
KSLE IFR Low Chart   (iFlightPlanner) 

KSLE Gnd/Twr
Feed Status: UP   Listeners: 1
Listen in your browser - HTML5 player (in browser, HTML5)
Click here to listen with your own player (launches your MP3 player)
KSLE Gnd/Twr Audio Archives
FacilityFrequency
Salem Ground121.900
Salem Tower119.100

NOTICE

Unauthorized use prohibited. See LiveATC.net Terms of Service


Airport/ARTCC Code
Frequency Search
(e.g., 124.400, 128.75)
Site-wide search
 


Browse LiveATC Feeds
Top 50 LiveATC Feeds
LiveATC Feed Map
Bad Weather Areas

LiveATC FAQ
Offer LiveATC feed
Contact LiveATC.net
Press Inquiries

LiveATC on iPhone
LiveATC on Android

Windows Phone
Windows 8/10

LiveATC Mobile
(Mobile browser)

ATC Audio Archives
Interesting Recordings

LiveATC Forums


Home Page
About LiveATC.net
Make a Donation
Terms of Use
Privacy Policy

Canadian Air Freqs

AIRMETs/SIGMETs

FAA Airport Status
Nat'l Airspace Status
Arrival Demand Charts


Server Software By:
Icecast.org
Liquidsoap